sensor_id;sensor_type;location;lat;lon;timestamp;temperature;humidity
60717;DHT22;46566;52.700;6.192;2022-08-11T00:00:12;19.40;99.90
60717;DHT22;46566;52.700;6.192;2022-08-11T00:02:39;19.50;99.90
60717;DHT22;46566;52.700;6.192;2022-08-11T00:05:07;19.40;99.90
60717;DHT22;46566;52.700;6.192;2022-08-11T00:07:40;19.30;99.90
60717;DHT22;46566;52.700;6.192;2022-08-11T00:10:14;19.30;99.90
60717;DHT22;46566;52.700;6.192;2022-08-11T00:12:42;19.20;99.90
60717;DHT22;46566;52.700;6.192;2022-08-11T00:15:08;19.20;99.90
60717;DHT22;46566;52.700;6.192;2022-08-11T00:17:35;19.10;99.90
60717;DHT22;46566;52.700;6.192;2022-08-11T00:20:10;19.10;99.90
60717;DHT22;46566;52.700;6.192;2022-08-11T00:22:39;19.00;99.90
60717;DHT22;46566;52.700;6.192;2022-08-11T00:25:18;19.00;99.90
60717;DHT22;46566;52.700;6.192;2022-08-11T00:27:46;18.90;99.90
60717;DHT22;46566;52.700;6.192;2022-08-11T00:30:13;18.90;99.90
60717;DHT22;46566;52.700;6.192;2022-08-11T00:32:51;18.90;99.90
60717;DHT22;46566;52.700;6.192;2022-08-11T00:35:25;18.80;99.90
60717;DHT22;46566;52.700;6.192;2022-08-11T00:37:53;18.80;99.90
60717;DHT22;46566;52.700;6.192;2022-08-11T00:41:00;18.80;99.90
60717;DHT22;46566;52.700;6.192;2022-08-11T00:46:20;18.80;99.90
60717;DHT22;46566;52.700;6.192;2022-08-11T00:49:20;18.80;99.90
60717;DHT22;46566;52.700;6.192;2022-08-11T00:51:58;18.80;99.90
60717;DHT22;46566;52.700;6.192;2022-08-11T01:00:14;18.70;99.90
60717;DHT22;46566;52.700;6.192;2022-08-11T01:24:55;18.10;99.90
60717;DHT22;46566;52.700;6.192;2022-08-11T01:37:01;17.90;99.90
60717;DHT22;46566;52.700;6.192;2022-08-11T01:47:55;17.80;99.90
60717;DHT22;46566;52.700;6.192;2022-08-11T01:50:52;17.80;99.90
60717;DHT22;46566;52.700;6.192;2022-08-11T01:58:49;17.90;99.90
60717;DHT22;46566;52.700;6.192;2022-08-11T02:09:59;17.70;99.90
60717;DHT22;46566;52.700;6.192;2022-08-11T02:12:56;17.70;99.90
60717;DHT22;46566;52.700;6.192;2022-08-11T02:15:38;17.70;99.90
60717;DHT22;46566;52.700;6.192;2022-08-11T02:18:21;17.70;99.90
60717;DHT22;46566;52.700;6.192;2022-08-11T02:20:56;17.70;99.90
60717;DHT22;46566;52.700;6.192;2022-08-11T02:24:05;17.60;99.90
60717;DHT22;46566;52.700;6.192;2022-08-11T02:35:19;17.40;99.90
60717;DHT22;46566;52.700;6.192;2022-08-11T02:38:08;17.30;99.90
60717;DHT22;46566;52.700;6.192;2022-08-11T02:44:28;17.40;99.90
60717;DHT22;46566;52.700;6.192;2022-08-11T02:50:02;17.30;99.90
60717;DHT22;46566;52.700;6.192;2022-08-11T02:52:56;17.30;99.90
60717;DHT22;46566;52.700;6.192;2022-08-11T02:55:37;17.30;99.90
60717;DHT22;46566;52.700;6.192;2022-08-11T02:58:16;17.30;99.90
60717;DHT22;46566;52.700;6.192;2022-08-11T03:01:05;17.30;99.90
60717;DHT22;46566;52.700;6.192;2022-08-11T03:03:37;17.30;99.90
60717;DHT22;46566;52.700;6.192;2022-08-11T03:09:26;17.40;99.90
60717;DHT22;46566;52.700;6.192;2022-08-11T03:15:11;17.40;99.90
60717;DHT22;46566;52.700;6.192;2022-08-11T03:18:24;17.40;99.90
60717;DHT22;46566;52.700;6.192;2022-08-11T03:21:00;17.40;99.90
60717;DHT22;46566;52.700;6.192;2022-08-11T03:33:45;17.10;99.90
60717;DHT22;46566;52.700;6.192;2022-08-11T03:39:52;17.10;99.90
60717;DHT22;46566;52.700;6.192;2022-08-11T03:42:32;17.00;99.90
60717;DHT22;46566;52.700;6.192;2022-08-11T03:46:18;17.00;99.90
60717;DHT22;46566;52.700;6.192;2022-08-11T03:48:20;17.00;99.90
60717;DHT22;46566;52.700;6.192;2022-08-11T03:51:00;16.90;99.90
60717;DHT22;46566;52.700;6.192;2022-08-11T03:53:31;16.80;99.90
60717;DHT22;46566;52.700;6.192;2022-08-11T03:56:21;16.80;99.90
60717;DHT22;46566;52.700;6.192;2022-08-11T04:02:03;16.70;99.90
60717;DHT22;46566;52.700;6.192;2022-08-11T04:25:21;16.60;99.90
60717;DHT22;46566;52.700;6.192;2022-08-11T04:27:57;16.60;99.90
60717;DHT22;46566;52.700;6.192;2022-08-11T04:30:57;16.60;99.90
60717;DHT22;46566;52.700;6.192;2022-08-11T04:33:51;16.60;99.90
60717;DHT22;46566;52.700;6.192;2022-08-11T04:36:25;16.50;99.90
60717;DHT22;46566;52.700;6.192;2022-08-11T04:39:46;16.50;99.90
60717;DHT22;46566;52.700;6.192;2022-08-11T04:48:25;16.50;99.90
60717;DHT22;46566;52.700;6.192;2022-08-11T04:57:46;16.50;99.90
60717;DHT22;46566;52.700;6.192;2022-08-11T05:00:55;16.60;99.90
60717;DHT22;46566;52.700;6.192;2022-08-11T05:07:12;16.60;99.90
60717;DHT22;46566;52.700;6.192;2022-08-11T05:10:05;16.60;99.90
60717;DHT22;46566;52.700;6.192;2022-08-11T05:13:00;16.50;99.90
60717;DHT22;46566;52.700;6.192;2022-08-11T05:15:50;16.60;99.90
60717;DHT22;46566;52.700;6.192;2022-08-11T05:21:25;16.60;99.90
60717;DHT22;46566;52.700;6.192;2022-08-11T05:24:19;16.60;99.90
60717;DHT22;46566;52.700;6.192;2022-08-11T05:27:08;16.60;99.90
60717;DHT22;46566;52.700;6.192;2022-08-11T05:30:07;16.60;99.90
60717;DHT22;46566;52.700;6.192;2022-08-11T05:33:04;16.60;99.90
60717;DHT22;46566;52.700;6.192;2022-08-11T05:35:59;16.70;99.90
60717;DHT22;46566;52.700;6.192;2022-08-11T05:38:29;16.70;99.90
60717;DHT22;46566;52.700;6.192;2022-08-11T05:41:14;16.70;99.90
60717;DHT22;46566;52.700;6.192;2022-08-11T05:44:03;16.80;99.90
60717;DHT22;46566;52.700;6.192;2022-08-11T05:46:48;16.80;99.90
60717;DHT22;46566;52.700;6.192;2022-08-11T05:49:34;16.90;99.90
60717;DHT22;46566;52.700;6.192;2022-08-11T05:52:27;16.90;99.90
60717;DHT22;46566;52.700;6.192;2022-08-11T05:55:12;16.90;99.90
60717;DHT22;46566;52.700;6.192;2022-08-11T05:58:03;17.00;99.90
60717;DHT22;46566;52.700;6.192;2022-08-11T06:00:30;17.10;99.90
60717;DHT22;46566;52.700;6.192;2022-08-11T06:03:00;17.10;99.90
60717;DHT22;46566;52.700;6.192;2022-08-11T06:05:36;17.10;99.90
60717;DHT22;46566;52.700;6.192;2022-08-11T06:08:04;17.20;99.90
60717;DHT22;46566;52.700;6.192;2022-08-11T06:10:34;17.30;99.90
60717;DHT22;46566;52.700;6.192;2022-08-11T06:13:02;17.30;99.90
60717;DHT22;46566;52.700;6.192;2022-08-11T06:17:59;17.40;99.90
60717;DHT22;46566;52.700;6.192;2022-08-11T06:20:28;17.50;99.90
60717;DHT22;46566;52.700;6.192;2022-08-11T06:23:05;17.60;99.90
60717;DHT22;46566;52.700;6.192;2022-08-11T06:25:33;17.60;99.90
60717;DHT22;46566;52.700;6.192;2022-08-11T06:28:02;17.60;99.90
60717;DHT22;46566;52.700;6.192;2022-08-11T06:30:40;17.70;99.90
60717;DHT22;46566;52.700;6.192;2022-08-11T06:33:13;17.80;99.90
60717;DHT22;46566;52.700;6.192;2022-08-11T06:41:19;18.00;99.90
60717;DHT22;46566;52.700;6.192;2022-08-11T06:46:45;18.20;99.90
60717;DHT22;46566;52.700;6.192;2022-08-11T06:49:13;18.30;99.90
60717;DHT22;46566;52.700;6.192;2022-08-11T06:52:10;18.30;99.90
60717;DHT22;46566;52.700;6.192;2022-08-11T06:54:47;18.50;99.90
60717;DHT22;46566;52.700;6.192;2022-08-11T06:57:17;18.50;99.90
60717;DHT22;46566;52.700;6.192;2022-08-11T07:00:09;18.60;99.90
60717;DHT22;46566;52.700;6.192;2022-08-11T07:03:00;18.70;99.90
60717;DHT22;46566;52.700;6.192;2022-08-11T07:14:37;19.20;99.90
60717;DHT22;46566;52.700;6.192;2022-08-11T07:18:06;19.30;99.90
60717;DHT22;46566;52.700;6.192;2022-08-11T07:20:52;19.40;99.90
60717;DHT22;46566;52.700;6.192;2022-08-11T07:23:45;19.60;99.90
60717;DHT22;46566;52.700;6.192;2022-08-11T07:26:29;19.70;99.90
60717;DHT22;46566;52.700;6.192;2022-08-11T07:29:23;19.80;99.90
60717;DHT22;46566;52.700;6.192;2022-08-11T07:31:51;20.00;99.90
60717;DHT22;46566;52.700;6.192;2022-08-11T07:37:10;20.10;99.90
60717;DHT22;46566;52.700;6.192;2022-08-11T07:39:38;20.20;99.90
60717;DHT22;46566;52.700;6.192;2022-08-11T07:42:07;20.30;99.90
60717;DHT22;46566;52.700;6.192;2022-08-11T07:44:33;20.40;99.90
60717;DHT22;46566;52.700;6.192;2022-08-11T07:47:36;20.60;99.90
60717;DHT22;46566;52.700;6.192;2022-08-11T07:53:23;20.80;99.90
60717;DHT22;46566;52.700;6.192;2022-08-11T07:55:52;21.00;99.90
60717;DHT22;46566;52.700;6.192;2022-08-11T08:01:01;21.20;99.90
60717;DHT22;46566;52.700;6.192;2022-08-11T08:03:46;21.40;99.90
60717;DHT22;46566;52.700;6.192;2022-08-11T08:12:15;24.90;99.90
60717;DHT22;46566;52.700;6.192;2022-08-11T08:15:05;26.30;98.50
60717;DHT22;46566;52.700;6.192;2022-08-11T08:18:08;27.50;88.10
60717;DHT22;46566;52.700;6.192;2022-08-11T08:20:38;28.60;75.80
60717;DHT22;46566;52.700;6.192;2022-08-11T08:25:53;29.80;64.80
60717;DHT22;46566;52.700;6.192;2022-08-11T08:28:20;30.40;59.70
60717;DHT22;46566;52.700;6.192;2022-08-11T08:30:48;31.10;60.00
60717;DHT22;46566;52.700;6.192;2022-08-11T08:36:13;32.00;53.80
60717;DHT22;46566;52.700;6.192;2022-08-11T08:41:31;32.40;49.80
60717;DHT22;46566;52.700;6.192;2022-08-11T08:44:07;32.80;50.90
60717;DHT22;46566;52.700;6.192;2022-08-11T08:46:57;33.40;45.40
60717;DHT22;46566;52.700;6.192;2022-08-11T08:49:33;33.50;45.30
60717;DHT22;46566;52.700;6.192;2022-08-11T08:52:05;34.00;48.50
60717;DHT22;46566;52.700;6.192;2022-08-11T08:57:42;34.80;46.00
60717;DHT22;46566;52.700;6.192;2022-08-11T09:00:38;35.20;44.00
60717;DHT22;46566;52.700;6.192;2022-08-11T09:06:47;35.50;43.50
60717;DHT22;46566;52.700;6.192;2022-08-11T09:12:30;36.10;41.50
60717;DHT22;46566;52.700;6.192;2022-08-11T09:18:00;35.90;39.10
60717;DHT22;46566;52.700;6.192;2022-08-11T09:23:44;35.10;38.10
60717;DHT22;46566;52.700;6.192;2022-08-11T09:26:57;35.40;40.30
60717;DHT22;46566;52.700;6.192;2022-08-11T09:32:37;35.70;39.50
60717;DHT22;46566;52.700;6.192;2022-08-11T09:41:11;35.70;39.20
60717;DHT22;46566;52.700;6.192;2022-08-11T09:43:55;35.10;39.10
60717;DHT22;46566;52.700;6.192;2022-08-11T09:56:23;34.30;39.60
60717;DHT22;46566;52.700;6.192;2022-08-11T10:00:12;34.10;39.00
60717;DHT22;46566;52.700;6.192;2022-08-11T10:11:57;34.20;38.90
60717;DHT22;46566;52.700;6.192;2022-08-11T10:23:51;34.50;37.80
60717;DHT22;46566;52.700;6.192;2022-08-11T10:33:38;33.70;37.90
60717;DHT22;46566;52.700;6.192;2022-08-11T10:36:53;33.50;38.50
60717;DHT22;46566;52.700;6.192;2022-08-11T10:39:44;33.20;38.60
60717;DHT22;46566;52.700;6.192;2022-08-11T10:45:52;33.30;39.50
60717;DHT22;46566;52.700;6.192;2022-08-11T10:49:43;33.30;39.50
60717;DHT22;46566;52.700;6.192;2022-08-11T10:56:05;33.50;37.40
60717;DHT22;46566;52.700;6.192;2022-08-11T11:10:39;33.50;39.70
60717;DHT22;46566;52.700;6.192;2022-08-11T11:13:30;33.70;38.50
60717;DHT22;46566;52.700;6.192;2022-08-11T11:16:17;33.70;38.40
60717;DHT22;46566;52.700;6.192;2022-08-11T11:19:38;33.60;38.60
60717;DHT22;46566;52.700;6.192;2022-08-11T11:22:04;33.80;38.90
60717;DHT22;46566;52.700;6.192;2022-08-11T11:31:29;33.90;37.90
60717;DHT22;46566;52.700;6.192;2022-08-11T11:38:11;34.20;38.50
60717;DHT22;46566;52.700;6.192;2022-08-11T11:46:44;33.90;38.20
60717;DHT22;46566;52.700;6.192;2022-08-11T11:49:35;34.30;37.80
60717;DHT22;46566;52.700;6.192;2022-08-11T12:05:47;35.40;36.30
60717;DHT22;46566;52.700;6.192;2022-08-11T12:08:14;35.30;35.70
60717;DHT22;46566;52.700;6.192;2022-08-11T12:14:54;35.40;35.40
60717;DHT22;46566;52.700;6.192;2022-08-11T12:20:27;35.70;35.90
60717;DHT22;46566;52.700;6.192;2022-08-11T12:23:13;35.50;37.90
60717;DHT22;46566;52.700;6.192;2022-08-11T12:26:07;35.30;36.60
60717;DHT22;46566;52.700;6.192;2022-08-11T12:29:21;35.20;36.80
60717;DHT22;46566;52.700;6.192;2022-08-11T12:31:52;35.40;36.00
60717;DHT22;46566;52.700;6.192;2022-08-11T12:37:59;35.30;35.30
60717;DHT22;46566;52.700;6.192;2022-08-11T12:44:10;35.40;36.10
60717;DHT22;46566;52.700;6.192;2022-08-11T12:47:36;35.50;35.00
60717;DHT22;46566;52.700;6.192;2022-08-11T12:50:49;35.10;35.10
60717;DHT22;46566;52.700;6.192;2022-08-11T13:00:00;34.60;35.00
60717;DHT22;46566;52.700;6.192;2022-08-11T13:03:27;34.80;36.00
60717;DHT22;46566;52.700;6.192;2022-08-11T13:06:31;34.90;35.60
60717;DHT22;46566;52.700;6.192;2022-08-11T13:08:58;35.00;35.00
60717;DHT22;46566;52.700;6.192;2022-08-11T13:14:35;34.80;34.90
60717;DHT22;46566;52.700;6.192;2022-08-11T13:17:26;34.90;36.80
60717;DHT22;46566;52.700;6.192;2022-08-11T13:20:16;35.10;36.80
60717;DHT22;46566;52.700;6.192;2022-08-11T13:32:38;34.60;36.50
60717;DHT22;46566;52.700;6.192;2022-08-11T13:38:13;34.70;34.90
60717;DHT22;46566;52.700;6.192;2022-08-11T13:46:10;34.90;34.20
60717;DHT22;46566;52.700;6.192;2022-08-11T13:49:19;35.00;34.70
60717;DHT22;46566;52.700;6.192;2022-08-11T13:51:46;35.10;35.80
60717;DHT22;46566;52.700;6.192;2022-08-11T13:54:31;35.30;36.00
60717;DHT22;46566;52.700;6.192;2022-08-11T13:57:22;35.40;34.40
60717;DHT22;46566;52.700;6.192;2022-08-11T14:06:23;35.30;34.00
60717;DHT22;46566;52.700;6.192;2022-08-11T14:09:17;35.10;34.50
60717;DHT22;46566;52.700;6.192;2022-08-11T14:17:47;35.00;35.30
60717;DHT22;46566;52.700;6.192;2022-08-11T14:20:54;35.00;35.50
60717;DHT22;46566;52.700;6.192;2022-08-11T14:27:10;35.40;35.30
60717;DHT22;46566;52.700;6.192;2022-08-11T14:30:01;35.30;34.60
60717;DHT22;46566;52.700;6.192;2022-08-11T14:45:12;35.40;35.10
60717;DHT22;46566;52.700;6.192;2022-08-11T14:54:52;35.30;34.60
60717;DHT22;46566;52.700;6.192;2022-08-11T15:00:31;35.10;34.60
60717;DHT22;46566;52.700;6.192;2022-08-11T15:03:13;35.00;35.90
60717;DHT22;46566;52.700;6.192;2022-08-11T15:11:37;35.00;35.70
60717;DHT22;46566;52.700;6.192;2022-08-11T15:21:12;34.40;36.50
60717;DHT22;46566;52.700;6.192;2022-08-11T15:30:55;34.30;35.20
60717;DHT22;46566;52.700;6.192;2022-08-11T15:37:02;33.90;36.80
60717;DHT22;46566;52.700;6.192;2022-08-11T15:52:20;32.90;38.00
60717;DHT22;46566;52.700;6.192;2022-08-11T15:58:30;32.80;38.50
60717;DHT22;46566;52.700;6.192;2022-08-11T16:01:19;32.80;38.60
60717;DHT22;46566;52.700;6.192;2022-08-11T16:07:32;32.40;38.30
60717;DHT22;46566;52.700;6.192;2022-08-11T16:10:18;32.10;38.40
60717;DHT22;46566;52.700;6.192;2022-08-11T16:16:31;31.90;39.30
60717;DHT22;46566;52.700;6.192;2022-08-11T16:31:09;31.20;39.80
60717;DHT22;46566;52.700;6.192;2022-08-11T16:36:20;31.00;40.70
60717;DHT22;46566;52.700;6.192;2022-08-11T16:43:34;31.00;41.40
60717;DHT22;46566;52.700;6.192;2022-08-11T16:49:50;31.00;41.10
60717;DHT22;46566;52.700;6.192;2022-08-11T17:11:04;30.50;42.20
60717;DHT22;46566;52.700;6.192;2022-08-11T17:17:41;30.40;42.10
60717;DHT22;46566;52.700;6.192;2022-08-11T17:20:10;30.30;42.00
60717;DHT22;46566;52.700;6.192;2022-08-11T17:25:48;30.30;42.50
60717;DHT22;46566;52.700;6.192;2022-08-11T17:31:28;30.30;43.90
60717;DHT22;46566;52.700;6.192;2022-08-11T17:35:18;30.30;44.60
60717;DHT22;46566;52.700;6.192;2022-08-11T17:41:30;29.90;45.70
60717;DHT22;46566;52.700;6.192;2022-08-11T17:44:44;29.90;46.00
60717;DHT22;46566;52.700;6.192;2022-08-11T18:04:42;29.20;47.80
60717;DHT22;46566;52.700;6.192;2022-08-11T18:19:26;28.70;49.50
60717;DHT22;46566;52.700;6.192;2022-08-11T18:28:28;28.50;50.10
60717;DHT22;46566;52.700;6.192;2022-08-11T18:37:31;28.30;50.30
60717;DHT22;46566;52.700;6.192;2022-08-11T19:02:00;27.60;52.40
60717;DHT22;46566;52.700;6.192;2022-08-11T19:14:36;27.30;53.30
60717;DHT22;46566;52.700;6.192;2022-08-11T19:23:41;27.00;54.30
60717;DHT22;46566;52.700;6.192;2022-08-11T19:26:28;27.00;54.30
60717;DHT22;46566;52.700;6.192;2022-08-11T19:29:15;26.90;54.80
60717;DHT22;46566;52.700;6.192;2022-08-11T19:32:02;26.80;54.70
60717;DHT22;46566;52.700;6.192;2022-08-11T19:34:47;26.80;55.10
60717;DHT22;46566;52.700;6.192;2022-08-11T19:37:32;26.70;55.00
60717;DHT22;46566;52.700;6.192;2022-08-11T19:40:18;26.60;55.40
60717;DHT22;46566;52.700;6.192;2022-08-11T19:43:04;26.50;55.40
60717;DHT22;46566;52.700;6.192;2022-08-11T19:45:52;26.50;55.90
60717;DHT22;46566;52.700;6.192;2022-08-11T19:48:37;26.40;56.20
60717;DHT22;46566;52.700;6.192;2022-08-11T19:51:23;26.40;56.30
60717;DHT22;46566;52.700;6.192;2022-08-11T19:54:08;26.30;57.20
60717;DHT22;46566;52.700;6.192;2022-08-11T19:56:53;26.20;56.90
60717;DHT22;46566;52.700;6.192;2022-08-11T19:59:38;26.10;57.80
60717;DHT22;46566;52.700;6.192;2022-08-11T20:02:22;25.90;57.90
60717;DHT22;46566;52.700;6.192;2022-08-11T20:05:07;25.90;58.90
60717;DHT22;46566;52.700;6.192;2022-08-11T20:07:55;25.80;58.70
60717;DHT22;46566;52.700;6.192;2022-08-11T20:10:40;25.70;59.00
60717;DHT22;46566;52.700;6.192;2022-08-11T20:13:26;25.60;59.30
60717;DHT22;46566;52.700;6.192;2022-08-11T20:16:13;25.50;60.10
60717;DHT22;46566;52.700;6.192;2022-08-11T20:19:01;25.40;60.60
60717;DHT22;46566;52.700;6.192;2022-08-11T20:21:47;25.20;61.30
60717;DHT22;46566;52.700;6.192;2022-08-11T20:24:33;25.10;61.50
60717;DHT22;46566;52.700;6.192;2022-08-11T20:27:18;25.10;63.40
60717;DHT22;46566;52.700;6.192;2022-08-11T20:30:04;24.90;63.10
60717;DHT22;46566;52.700;6.192;2022-08-11T20:32:50;24.80;64.60
60717;DHT22;46566;52.700;6.192;2022-08-11T20:35:36;24.70;64.60
60717;DHT22;46566;52.700;6.192;2022-08-11T20:38:23;24.70;66.20
60717;DHT22;46566;52.700;6.192;2022-08-11T20:41:09;24.70;65.40
60717;DHT22;46566;52.700;6.192;2022-08-11T20:43:55;24.60;66.20
60717;DHT22;46566;52.700;6.192;2022-08-11T20:46:41;24.60;67.10
60717;DHT22;46566;52.700;6.192;2022-08-11T20:49:28;24.60;68.00
60717;DHT22;46566;52.700;6.192;2022-08-11T20:52:15;24.50;68.90
60717;DHT22;46566;52.700;6.192;2022-08-11T20:55:01;24.40;69.60
60717;DHT22;46566;52.700;6.192;2022-08-11T20:57:47;24.20;71.60
60717;DHT22;46566;52.700;6.192;2022-08-11T21:00:33;24.10;74.00
60717;DHT22;46566;52.700;6.192;2022-08-11T21:03:19;24.00;75.90
60717;DHT22;46566;52.700;6.192;2022-08-11T21:06:05;23.90;74.40
60717;DHT22;46566;52.700;6.192;2022-08-11T21:08:50;23.90;78.00
60717;DHT22;46566;52.700;6.192;2022-08-11T21:11:37;23.90;76.60
60717;DHT22;46566;52.700;6.192;2022-08-11T21:14:23;23.80;78.20
60717;DHT22;46566;52.700;6.192;2022-08-11T21:17:08;23.70;81.40
60717;DHT22;46566;52.700;6.192;2022-08-11T21:20:00;23.60;80.80
60717;DHT22;46566;52.700;6.192;2022-08-11T21:22:54;23.50;82.00
60717;DHT22;46566;52.700;6.192;2022-08-11T21:25:47;23.50;82.20
60717;DHT22;46566;52.700;6.192;2022-08-11T21:28:35;23.50;83.00
60717;DHT22;46566;52.700;6.192;2022-08-11T21:31:23;23.50;83.50
60717;DHT22;46566;52.700;6.192;2022-08-11T21:34:10;23.40;82.00
60717;DHT22;46566;52.700;6.192;2022-08-11T21:36:59;23.40;83.90
60717;DHT22;46566;52.700;6.192;2022-08-11T21:39:46;23.30;84.50
60717;DHT22;46566;52.700;6.192;2022-08-11T21:42:35;23.20;85.20
60717;DHT22;46566;52.700;6.192;2022-08-11T21:45:20;23.20;90.70
60717;DHT22;46566;52.700;6.192;2022-08-11T21:48:06;23.10;88.80
60717;DHT22;46566;52.700;6.192;2022-08-11T21:50:51;23.00;90.30
60717;DHT22;46566;52.700;6.192;2022-08-11T21:53:36;22.90;90.30
60717;DHT22;46566;52.700;6.192;2022-08-11T21:56:22;22.80;91.20
60717;DHT22;46566;52.700;6.192;2022-08-11T21:59:09;22.80;92.40
60717;DHT22;46566;52.700;6.192;2022-08-11T22:01:54;22.70;92.80
60717;DHT22;46566;52.700;6.192;2022-08-11T22:04:40;22.60;92.20
60717;DHT22;46566;52.700;6.192;2022-08-11T22:07:25;22.60;94.80
60717;DHT22;46566;52.700;6.192;2022-08-11T22:10:10;22.50;93.00
60717;DHT22;46566;52.700;6.192;2022-08-11T22:12:54;22.40;94.80
60717;DHT22;46566;52.700;6.192;2022-08-11T22:15:39;22.40;94.50
60717;DHT22;46566;52.700;6.192;2022-08-11T22:18:23;22.40;94.30
60717;DHT22;46566;52.700;6.192;2022-08-11T22:21:11;22.30;94.50
60717;DHT22;46566;52.700;6.192;2022-08-11T22:23:57;22.20;95.70
60717;DHT22;46566;52.700;6.192;2022-08-11T22:26:42;22.20;97.00
60717;DHT22;46566;52.700;6.192;2022-08-11T22:29:26;22.20;95.90
60717;DHT22;46566;52.700;6.192;2022-08-11T22:32:11;22.20;94.80
60717;DHT22;46566;52.700;6.192;2022-08-11T22:34:58;22.20;96.10
60717;DHT22;46566;52.700;6.192;2022-08-11T22:37:44;22.10;96.40
60717;DHT22;46566;52.700;6.192;2022-08-11T22:40:31;22.10;94.60
60717;DHT22;46566;52.700;6.192;2022-08-11T22:43:15;22.00;95.90
60717;DHT22;46566;52.700;6.192;2022-08-11T22:46:00;22.00;95.20
60717;DHT22;46566;52.700;6.192;2022-08-11T22:48:46;22.10;95.60
60717;DHT22;46566;52.700;6.192;2022-08-11T22:51:32;22.00;94.30
60717;DHT22;46566;52.700;6.192;2022-08-11T22:54:19;22.00;94.50
60717;DHT22;46566;52.700;6.192;2022-08-11T22:57:04;22.00;93.60
60717;DHT22;46566;52.700;6.192;2022-08-11T22:59:50;22.00;93.50
60717;DHT22;46566;52.700;6.192;2022-08-11T23:02:35;22.00;93.20
60717;DHT22;46566;52.700;6.192;2022-08-11T23:05:20;21.90;93.30
60717;DHT22;46566;52.700;6.192;2022-08-11T23:08:05;21.90;93.60
60717;DHT22;46566;52.700;6.192;2022-08-11T23:10:50;21.90;94.50
60717;DHT22;46566;52.700;6.192;2022-08-11T23:13:35;21.90;94.30
60717;DHT22;46566;52.700;6.192;2022-08-11T23:16:20;21.80;95.90
60717;DHT22;46566;52.700;6.192;2022-08-11T23:19:07;21.70;95.90
60717;DHT22;46566;52.700;6.192;2022-08-11T23:21:52;21.60;98.20
60717;DHT22;46566;52.700;6.192;2022-08-11T23:24:37;21.50;96.80
60717;DHT22;46566;52.700;6.192;2022-08-11T23:27:22;21.40;98.40
60717;DHT22;46566;52.700;6.192;2022-08-11T23:30:08;21.40;97.30
60717;DHT22;46566;52.700;6.192;2022-08-11T23:33:00;21.40;98.20
60717;DHT22;46566;52.700;6.192;2022-08-11T23:35:49;21.40;98.20
60717;DHT22;46566;52.700;6.192;2022-08-11T23:38:34;21.30;99.20
60717;DHT22;46566;52.700;6.192;2022-08-11T23:41:19;21.30;99.90
60717;DHT22;46566;52.700;6.192;2022-08-11T23:44:05;21.20;99.50
60717;DHT22;46566;52.700;6.192;2022-08-11T23:46:55;21.20;99.90
60717;DHT22;46566;52.700;6.192;2022-08-11T23:49:41;21.20;99.60
60717;DHT22;46566;52.700;6.192;2022-08-11T23:52:26;21.00;99.90
60717;DHT22;46566;52.700;6.192;2022-08-11T23:55:11;21.00;99.90
60717;DHT22;46566;52.700;6.192;2022-08-11T23:57:56;20.90;99.90
